Time;durP1;ratioP1;P1;durP2;ratioP2;P2;SDS_P1;SDS_P2;PMS_P1;PMS_P2;Temp;Humidity;BMP_temperature;BMP_pressure;BME280_temperature;BME280_humidity;BME280_pressure;Samples;Min_cycle;Max_cycle;Signal;HPM_P1;HPM_P2
2023/08/15 00:01:32;;;;;;;5.60;5.20;;;13.70;74.60;;;;;;5079628;28;20191;-71
2023/08/15 00:03:59;;;;;;;5.93;5.53;;;14.00;75.00;;;;;;5081689;28;20187;-71
2023/08/15 00:06:27;;;;;;;5.47;4.93;;;14.10;74.20;;;;;;5083422;28;20193;-66
2023/08/15 00:08:54;;;;;;;7.77;4.40;;;14.20;73.90;;;;;;5076270;28;20268;-65
2023/08/15 00:11:25;;;;;;;4.60;4.20;;;14.30;73.90;;;;;;5079072;28;20220;-65
2023/08/15 00:13:55;;;;;;;4.20;4.00;;;14.50;73.30;;;;;;5081231;28;20178;-63
2023/08/15 00:16:23;;;;;;;3.70;3.50;;;14.60;73.70;;;;;;5079084;28;20202;-67
2023/08/15 00:18:50;;;;;;;4.03;3.83;;;14.30;72.60;;;;;;5075964;28;20183;-65
2023/08/15 00:21:17;;;;;;;4.27;4.07;;;14.30;73.70;;;;;;5081839;28;20178;-66
2023/08/15 00:23:45;;;;;;;5.43;4.03;;;14.60;73.60;;;;;;5080171;28;20186;-64
2023/08/15 00:26:12;;;;;;;3.50;3.20;;;14.90;73.50;;;;;;5082479;28;20680;-64
2023/08/15 00:28:40;;;;;;;4.90;3.43;;;15.00;71.50;;;;;;5071708;28;20192;-64
2023/08/15 00:31:07;;;;;;;3.40;3.20;;;15.00;72.40;;;;;;5079078;28;20266;-65
2023/08/15 00:33:35;;;;;;;5.80;2.80;;;15.10;71.90;;;;;;5079304;28;20175;-65
2023/08/15 00:36:04;;;;;;;2.90;2.40;;;15.10;71.90;;;;;;5072514;28;20183;-66
2023/08/15 00:38:32;;;;;;;5.67;2.40;;;15.30;71.70;;;;;;5079043;28;20212;-70
2023/08/15 00:41:00;;;;;;;3.17;2.60;;;15.30;71.70;;;;;;5059818;28;20255;-65
2023/08/15 00:43:27;;;;;;;2.57;2.10;;;15.20;71.10;;;;;;5077775;28;20183;-69
2023/08/15 00:45:55;;;;;;;2.60;2.10;;;15.30;71.90;;;;;;5078102;28;20226;-66
2023/08/15 00:48:22;;;;;;;3.53;2.03;;;15.50;72.00;;;;;;5081685;28;20182;-64
2023/08/15 00:50:50;;;;;;;6.93;1.90;;;15.70;72.00;;;;;;5068994;28;20682;-66
2023/08/15 00:53:30;;;;;;;2.10;1.60;;;15.80;70.10;;;;;;5080903;28;20521;-74
2023/08/15 00:55:59;;;;;;;2.77;1.87;;;15.80;70.90;;;;;;5076728;28;20190;-64
2023/08/15 00:58:28;;;;;;;5.07;1.67;;;15.80;70.90;;;;;;5080696;28;20209;-65
2023/08/15 01:00:56;;;;;;;2.43;1.30;;;15.80;70.70;;;;;;5061808;28;20200;-66
2023/08/15 01:03:23;;;;;;;1.73;1.30;;;15.50;71.10;;;;;;5075857;28;20183;-68
2023/08/15 01:05:51;;;;;;;3.03;1.03;;;15.70;71.50;;;;;;5073833;28;20190;-64
2023/08/15 01:08:18;;;;;;;4.93;1.50;;;15.90;70.40;;;;;;5077071;28;20227;-66
2023/08/15 01:10:46;;;;;;;6.43;1.30;;;15.80;70.30;;;;;;5069275;28;20764;-64
2023/08/15 01:13:28;;;;;;;4.53;1.47;;;16.00;71.10;;;;;;5074800;28;20234;-64
2023/08/15 01:15:56;;;;;;;4.47;1.23;;;16.30;70.50;;;;;;5074469;28;20192;-66
2023/08/15 01:18:35;;;;;;;2.87;1.40;;;16.60;68.60;;;;;;5076703;28;20651;-65
2023/08/15 01:21:04;;;;;;;1.80;1.10;;;16.90;67.70;;;;;;5074049;28;20280;-67
2023/08/15 01:23:47;;;;;;;2.50;1.10;;;17.10;66.50;;;;;;5075778;28;20206;-66
2023/08/15 01:26:14;;;;;;;5.17;1.17;;;16.90;67.30;;;;;;5079510;28;20181;-66
2023/08/15 01:28:42;;;;;;;2.70;1.27;;;16.70;66.80;;;;;;5071589;28;20737;-66
2023/08/15 01:31:35;;;;;;;4.23;1.03;;;16.70;67.10;;;;;;5081064;28;20215;-64
2023/08/15 01:34:13;;;;;;;3.47;1.43;;;16.80;66.40;;;;;;5068810;28;20580;-64
2023/08/15 01:36:54;;;;;;;2.77;1.30;;;16.70;66.00;;;;;;5072006;28;20217;-66
2023/08/15 01:39:29;;;;;;;9.27;1.70;;;16.90;66.40;;;;;;5070501;28;20281;-65
2023/08/15 01:42:00;;;;;;;2.87;1.43;;;17.20;67.30;;;;;;5075306;28;20207;-67
2023/08/15 01:44:29;;;;;;;7.23;1.43;;;17.30;65.80;;;;;;5070556;28;20179;-67
2023/08/15 01:47:00;;;;;;;4.30;1.27;;;17.50;65.90;;;;;;5072660;28;20198;-64
2023/08/15 01:49:27;;;;;;;4.00;1.13;;;17.80;65.20;;;;;;5075013;28;20288;-66
2023/08/15 01:51:57;;;;;;;3.70;1.30;;;17.80;64.50;;;;;;5080054;28;20183;-64
2023/08/15 01:54:24;;;;;;;1.97;1.00;;;17.50;64.60;;;;;;5057010;28;20190;-64
2023/08/15 01:56:51;;;;;;;1.97;1.17;;;16.90;65.40;;;;;;5070252;28;20493;-70
2023/08/15 01:59:19;;;;;;;5.23;1.10;;;16.40;66.20;;;;;;5069185;28;20177;-66
2023/08/15 02:01:46;;;;;;;2.70;1.20;;;16.00;66.30;;;;;;5072499;28;20519;-65
2023/08/15 02:04:13;;;;;;;1.77;0.90;;;15.80;67.40;;;;;;5076195;28;20178;-71
2023/08/15 02:06:41;;;;;;;2.47;1.00;;;16.30;66.90;;;;;;5077401;28;20194;-71
2023/08/15 02:09:08;;;;;;;4.27;1.00;;;16.80;66.30;;;;;;5070126;28;20208;-67
2023/08/15 02:11:35;;;;;;;4.43;1.70;;;17.20;64.90;;;;;;5072455;28;20206;-68
2023/08/15 02:14:03;;;;;;;2.83;1.30;;;17.30;64.60;;;;;;5077080;28;20190;-65
2023/08/15 02:16:30;;;;;;;3.63;1.17;;;17.80;62.80;;;;;;5074308;28;20210;-65
2023/08/15 02:18:58;;;;;;;2.27;0.80;;;17.80;62.30;;;;;;5051820;28;20221;-65
2023/08/15 02:21:25;;;;;;;4.63;1.10;;;17.80;61.60;;;;;;5078037;28;20675;-65
2023/08/15 02:23:53;;;;;;;3.93;1.40;;;17.70;63.20;;;;;;5071930;28;20535;-64
2023/08/15 02:26:20;;;;;;;2.67;1.07;;;17.80;62.20;;;;;;5070606;28;20179;-65
2023/08/15 02:28:48;;;;;;;1.90;0.97;;;17.90;62.60;;;;;;5075088;28;20190;-66
2023/08/15 02:31:15;;;;;;;3.97;1.30;;;18.00;62.70;;;;;;5080560;28;20551;-66
2023/08/15 02:33:42;;;;;;;2.90;1.00;;;18.10;63.00;;;;;;5078547;28;20186;-66
2023/08/15 02:36:10;;;;;;;2.20;0.90;;;18.20;62.10;;;;;;5076642;28;20186;-69
2023/08/15 02:38:37;;;;;;;1.43;0.70;;;18.30;61.80;;;;;;5075572;28;20233;-63
2023/08/15 02:41:04;;;;;;;2.70;1.07;;;18.60;60.30;;;;;;5081280;28;20635;-64
2023/08/15 02:43:32;;;;;;;4.73;1.30;;;18.50;59.90;;;;;;5077265;28;20266;-66
2023/08/15 02:45:59;;;;;;;4.67;1.37;;;18.30;60.90;;;;;;5074681;28;20645;-63
2023/08/15 02:48:26;;;;;;;2.30;1.10;;;18.00;61.70;;;;;;5077683;28;20190;-66
2023/08/15 02:50:58;;;;;;;3.60;1.00;;;17.80;63.50;;;;;;5078702;28;20234;-68
2023/08/15 02:53:34;;;;;;;5.87;1.27;;;17.80;64.40;;;;;;5059841;28;20223;-73
2023/08/15 02:56:06;;;;;;;2.90;1.17;;;17.20;64.30;;;;;;5048009;28;20781;-74
2023/08/15 02:58:33;;;;;;;2.33;0.83;;;16.90;64.80;;;;;;5056808;28;20195;-71
2023/08/15 03:01:03;;;;;;;7.13;1.40;;;16.70;64.20;;;;;;5077698;28;20605;-67
2023/08/15 03:03:33;;;;;;;4.30;1.00;;;16.90;65.00;;;;;;5073764;28;20217;-68
2023/08/15 03:06:03;;;;;;;3.90;1.07;;;16.90;64.70;;;;;;5054625;28;20189;-68
2023/08/15 03:08:31;;;;;;;3.67;1.00;;;17.00;64.70;;;;;;5041775;28;20238;-70
2023/08/15 03:11:05;;;;;;;2.27;1.00;;;16.80;63.80;;;;;;5043583;28;20563;-68
2023/08/15 03:13:32;;;;;;;6.60;1.30;;;16.80;64.60;;;;;;5073401;28;20641;-66
2023/08/15 03:16:00;;;;;;;2.23;0.93;;;16.70;64.80;;;;;;5071939;28;20273;-66
2023/08/15 03:18:30;;;;;;;5.07;1.30;;;16.70;65.70;;;;;;5075387;28;20830;-69
2023/08/15 03:21:03;;;;;;;5.40;1.17;;;16.80;66.40;;;;;;5076944;28;20197;-68
2023/08/15 03:23:37;;;;;;;3.23;1.13;;;17.20;64.70;;;;;;5069472;28;20271;-67
2023/08/15 03:26:07;;;;;;;2.97;1.10;;;17.50;63.80;;;;;;5069278;28;20195;-64
2023/08/15 03:28:36;;;;;;;6.43;1.27;;;18.00;63.30;;;;;;5056354;28;20187;-65
2023/08/15 03:31:22;;;;;;;4.57;1.30;;;17.70;64.20;;;;;;5075818;28;20272;-67
2023/08/15 03:33:53;;;;;;;4.57;1.20;;;17.50;65.50;;;;;;5022614;28;20206;-70
2023/08/15 03:36:25;;;;;;;5.93;1.10;;;17.90;62.80;;;;;;5075740;28;20278;-70
2023/08/15 03:38:53;;;;;;;4.70;1.20;;;17.80;63.00;;;;;;5068534;28;20795;-69
2023/08/15 03:41:29;;;;;;;3.00;1.10;;;18.00;61.50;;;;;;5050245;28;20197;-65
2023/08/15 03:43:57;;;;;;;2.90;1.17;;;18.90;60.10;;;;;;5051467;28;20192;-74
2023/08/15 03:46:25;;;;;;;4.87;1.17;;;18.50;60.30;;;;;;5076360;28;20521;-66
2023/08/15 03:48:53;;;;;;;5.27;1.20;;;18.00;62.90;;;;;;5077693;28;20719;-67
2023/08/15 03:51:30;;;;;;;3.33;1.10;;;17.60;64.70;;;;;;5074045;28;20240;-68
2023/08/15 03:54:01;;;;;;;3.73;1.20;;;17.20;66.20;;;;;;5059514;28;20205;-72
2023/08/15 03:56:28;;;;;;;5.10;1.00;;;17.10;66.70;;;;;;5058238;28;20195;-64
2023/08/15 03:58:59;;;;;;;3.97;1.10;;;16.90;67.40;;;;;;5074255;28;20180;-66
2023/08/15 04:01:31;;;;;;;3.23;1.07;;;16.80;67.20;;;;;;5057493;28;20214;-63
2023/08/15 04:04:02;;;;;;;2.47;0.80;;;16.80;66.70;;;;;;5073669;28;20221;-64
2023/08/15 04:06:31;;;;;;;2.40;1.10;;;16.80;66.90;;;;;;5083339;28;20182;-63
2023/08/15 04:08:59;;;;;;;3.00;1.00;;;16.80;67.00;;;;;;5061460;28;20245;-66
2023/08/15 04:11:32;;;;;;;8.47;1.13;;;17.60;66.50;;;;;;5059581;28;20622;-64
2023/08/15 04:14:00;;;;;;;2.23;0.80;;;18.60;62.80;;;;;;5081956;28;20191;-63
2023/08/15 04:16:35;;;;;;;3.63;0.87;;;19.00;60.70;;;;;;5062609;28;20206;-64
2023/08/15 04:19:02;;;;;;;6.87;1.23;;;19.30;59.00;;;;;;5078781;28;20175;-64
2023/08/15 04:21:33;;;;;;;2.63;0.70;;;19.50;57.40;;;;;;5045040;28;20317;-66
2023/08/15 04:24:05;;;;;;;5.70;1.00;;;19.40;58.10;;;;;;5076595;28;20195;-66
2023/08/15 04:26:33;;;;;;;4.77;1.03;;;19.50;57.90;;;;;;5060453;28;20638;-65
2023/08/15 04:29:01;;;;;;;1.57;0.97;;;19.80;57.40;;;;;;5078901;28;20638;-64
2023/08/15 04:31:35;;;;;;;6.10;1.50;;;20.30;56.80;;;;;;5044651;28;20223;-66
2023/08/15 04:34:05;;;;;;;3.13;0.70;;;20.10;56.90;;;;;;5047889;28;20183;-72
2023/08/15 04:36:38;;;;;;;3.30;0.80;;;19.80;55.60;;;;;;5078517;28;20182;-64
2023/08/15 04:39:07;;;;;;;3.87;0.90;;;19.70;56.40;;;;;;5047127;28;20183;-66
2023/08/15 04:41:35;;;;;;;3.30;1.03;;;20.00;55.60;;;;;;5069192;28;20214;-69
2023/08/15 04:44:03;;;;;;;3.23;0.93;;;19.90;55.80;;;;;;5059485;28;20184;-68
2023/08/15 04:46:33;;;;;;;5.83;1.03;;;19.30;58.30;;;;;;5057808;28;20206;-67
2023/08/15 04:49:02;;;;;;;7.23;1.30;;;19.80;58.70;;;;;;5059905;28;20213;-72
2023/08/15 04:51:42;;;;;;;4.77;1.10;;;19.70;57.80;;;;;;5074360;28;20312;-65
2023/08/15 04:54:11;;;;;;;10.30;1.60;;;19.00;60.70;;;;;;5075226;28;20178;-65
2023/08/15 04:56:39;;;;;;;6.30;1.70;;;19.80;57.70;;;;;;5075975;28;20630;-66
2023/08/15 04:59:12;;;;;;;3.03;1.13;;;19.60;58.60;;;;;;5082060;28;20645;-65
2023/08/15 05:01:42;;;;;;;2.90;0.73;;;19.80;57.90;;;;;;5076603;28;20187;-64
2023/08/15 05:04:10;;;;;;;6.07;1.17;;;20.10;57.50;;;;;;5094845;28;20191;-64
2023/08/15 05:06:42;;;;;;;6.80;1.57;;;20.20;56.80;;;;;;5076212;28;20179;-65
2023/08/15 05:09:16;;;;;;;4.27;1.20;;;20.60;55.80;;;;;;5044953;28;20712;-67
2023/08/15 05:11:46;;;;;;;4.43;1.00;;;19.90;56.00;;;;;;5073932;28;20249;-65
2023/08/15 05:14:13;;;;;;;4.87;1.33;;;19.20;57.10;;;;;;5076692;28;20190;-65
2023/08/15 05:16:46;;;;;;;2.43;1.40;;;18.80;59.10;;;;;;5076182;28;20190;-65
2023/08/15 05:19:18;;;;;;;6.27;2.00;;;19.70;56.60;;;;;;5063156;28;20182;-70
2023/08/15 05:21:51;;;;;;;5.83;1.53;;;19.90;56.20;;;;;;5058100;28;20186;-69
2023/08/15 05:24:20;;;;;;;3.53;1.23;;;19.70;56.90;;;;;;5056782;28;20241;-67
2023/08/15 05:26:50;;;;;;;6.37;2.17;;;19.80;58.00;;;;;;5075638;28;20906;-68
2023/08/15 05:29:18;;;;;;;3.43;1.07;;;18.90;60.50;;;;;;5043653;28;20206;-66
2023/08/15 05:31:45;;;;;;;7.50;2.10;;;19.30;58.80;;;;;;5075472;28;20194;-65
2023/08/15 05:34:28;;;;;;;5.30;1.63;;;19.60;58.20;;;;;;5074311;28;20534;-67
2023/08/15 05:36:57;;;;;;;5.80;1.20;;;20.00;57.30;;;;;;5056883;28;20281;-66
2023/08/15 05:39:28;;;;;;;3.00;1.10;;;18.90;58.50;;;;;;5071234;28;20179;-65
2023/08/15 05:41:59;;;;;;;3.63;1.20;;;17.80;61.50;;;;;;5058649;28;20187;-64
2023/08/15 05:44:26;;;;;;;4.97;1.27;;;17.50;63.80;;;;;;5073356;28;20172;-65
2023/08/15 05:46:54;;;;;;;4.33;1.20;;;17.30;65.10;;;;;;5055283;28;20195;-63
2023/08/15 05:49:30;;;;;;;4.33;1.17;;;17.30;66.50;;;;;;5073645;28;20194;-68
2023/08/15 05:52:06;;;;;;;3.73;1.30;;;16.80;68.20;;;;;;5057401;28;20621;-65
2023/08/15 05:54:35;;;;;;;5.10;1.20;;;17.20;68.20;;;;;;5075264;28;20548;-64
2023/08/15 05:57:06;;;;;;;6.80;1.70;;;16.90;68.50;;;;;;5042852;28;20245;-66
2023/08/15 05:59:39;;;;;;;5.60;1.90;;;17.70;65.90;;;;;;5083323;28;21117;-63
2023/08/15 06:02:10;;;;;;;3.50;1.20;;;18.60;63.90;;;;;;5075466;28;20521;-65
2023/08/15 06:04:42;;;;;;;5.53;1.30;;;18.70;64.00;;;;;;5076839;28;20195;-65
2023/08/15 06:07:09;;;;;;;5.90;1.33;;;18.90;61.70;;;;;;5076949;28;20249;-65
2023/08/15 06:09:40;;;;;;;2.80;1.60;;;18.60;61.00;;;;;;5065422;28;20219;-66
2023/08/15 06:12:09;;;;;;;8.37;3.20;;;18.80;61.10;;;;;;5075479;28;20191;-65
2023/08/15 06:14:41;;;;;;;2.73;1.77;;;19.10;61.30;;;;;;5074051;28;20233;-65
2023/08/15 06:17:17;;;;;;;5.77;1.30;;;17.90;63.70;;;;;;5070972;28;20195;-68
2023/08/15 06:19:51;;;;;;;4.07;1.80;;;16.90;66.90;;;;;;5061588;28;20192;-64
2023/08/15 06:22:18;;;;;;;10.80;6.03;;;16.70;69.10;;;;;;5076888;28;20240;-64
2023/08/15 06:24:47;;;;;;;3.00;1.73;;;16.60;70.00;;;;;;5071253;28;20213;-64
2023/08/15 06:27:14;;;;;;;6.37;1.47;;;16.40;70.70;;;;;;5072179;28;20671;-68
2023/08/15 06:29:43;;;;;;;6.23;1.40;;;16.20;69.80;;;;;;5068250;28;20211;-66
2023/08/15 06:32:26;;;;;;;2.13;1.10;;;16.00;69.80;;;;;;5055648;28;20229;-68
2023/08/15 06:34:53;;;;;;;3.27;1.30;;;15.70;71.60;;;;;;5069688;28;20219;-67
2023/08/15 06:37:24;;;;;;;5.57;1.50;;;15.60;72.60;;;;;;5076465;28;20217;-67
2023/08/15 06:39:51;;;;;;;2.83;1.10;;;15.30;73.20;;;;;;5070248;28;20195;-64
2023/08/15 06:42:22;;;;;;;5.53;1.30;;;15.20;74.50;;;;;;5076078;28;20182;-64
2023/08/15 06:44:50;;;;;;;2.53;0.90;;;15.10;75.00;;;;;;5078203;28;20209;-65
2023/08/15 06:47:18;;;;;;;2.83;1.20;;;15.00;74.70;;;;;;5076512;28;20201;-67
2023/08/15 06:49:45;;;;;;;3.60;1.10;;;14.80;75.00;;;;;;5078286;28;20667;-64
2023/08/15 06:52:13;;;;;;;5.60;1.23;;;14.80;75.40;;;;;;5069169;28;20648;-69
2023/08/15 06:54:40;;;;;;;2.27;0.80;;;14.80;75.70;;;;;;5075013;28;20186;-67
2023/08/15 06:57:07;;;;;;;5.60;1.33;;;14.80;76.40;;;;;;5058008;28;20595;-63
2023/08/15 06:59:35;;;;;;;6.60;1.23;;;14.70;76.70;;;;;;5077434;28;20190;-65
2023/08/15 07:02:07;;;;;;;3.00;1.30;;;14.70;77.20;;;;;;5058622;28;20253;-70
2023/08/15 07:04:38;;;;;;;6.47;1.30;;;14.60;77.30;;;;;;5052572;28;20187;-69
2023/08/15 07:07:06;;;;;;;4.03;1.23;;;14.50;77.60;;;;;;5073890;28;20215;-66
2023/08/15 07:09:35;;;;;;;2.10;1.30;;;14.40;77.40;;;;;;5073975;28;20274;-64
2023/08/15 07:12:05;;;;;;;3.43;1.10;;;14.50;77.70;;;;;;5069683;28;20195;-67
2023/08/15 07:14:35;;;;;;;4.83;1.40;;;14.50;77.60;;;;;;5077940;28;20265;-64
2023/08/15 07:17:02;;;;;;;5.17;1.30;;;14.40;78.00;;;;;;5070822;28;20316;-64
2023/08/15 07:19:30;;;;;;;4.80;1.53;;;14.40;78.20;;;;;;5075310;28;20696;-67
2023/08/15 07:22:00;;;;;;;4.53;1.83;;;14.30;78.30;;;;;;5069209;28;20221;-69
2023/08/15 07:24:27;;;;;;;3.87;2.10;;;14.30;78.50;;;;;;5076814;28;20177;-64
2023/08/15 07:26:58;;;;;;;6.57;1.13;;;14.30;78.30;;;;;;5068041;28;21163;-70
2023/08/15 07:29:25;;;;;;;6.00;1.30;;;14.20;78.40;;;;;;5080714;28;20174;-66
2023/08/15 07:31:52;;;;;;;5.63;1.40;;;14.10;77.90;;;;;;5072747;28;20297;-69
2023/08/15 07:34:20;;;;;;;5.67;1.40;;;14.10;78.00;;;;;;5081563;28;20179;-66
2023/08/15 07:36:47;;;;;;;2.30;1.33;;;14.00;77.90;;;;;;5080402;28;20189;-67
2023/08/15 07:39:15;;;;;;;4.13;1.63;;;13.90;78.00;;;;;;5082114;28;20761;-65
2023/08/15 07:41:42;;;;;;;1.93;1.10;;;13.90;78.30;;;;;;5076011;28;20661;-66
2023/08/15 07:44:10;;;;;;;7.63;1.20;;;13.90;78.50;;;;;;5083823;28;20273;-68
2023/08/15 07:46:37;;;;;;;5.30;1.50;;;13.90;78.80;;;;;;5078485;28;20176;-65
2023/08/15 07:49:05;;;;;;;4.30;1.50;;;13.80;79.70;;;;;;5080453;28;20273;-65
2023/08/15 07:51:32;;;;;;;5.40;2.00;;;13.80;80.20;;;;;;5071473;28;20541;-67
2023/08/15 07:53:59;;;;;;;3.70;1.40;;;13.80;80.40;;;;;;5079097;28;20167;-65
2023/08/15 07:56:29;;;;;;;2.70;1.40;;;13.80;80.70;;;;;;5078085;28;20506;-64
2023/08/15 07:58:56;;;;;;;5.80;1.53;;;13.80;81.00;;;;;;5078876;28;20196;-65
2023/08/15 08:01:24;;;;;;;6.33;1.90;;;13.70;81.10;;;;;;5077510;28;20179;-65
2023/08/15 08:03:51;;;;;;;6.67;1.40;;;13.70;81.00;;;;;;5074746;28;20661;-64
2023/08/15 08:06:23;;;;;;;7.33;1.70;;;13.70;81.10;;;;;;5072138;28;20184;-63
2023/08/15 08:08:50;;;;;;;7.97;2.30;;;13.70;81.10;;;;;;5073915;28;20254;-64
2023/08/15 08:11:17;;;;;;;5.90;1.77;;;13.70;81.10;;;;;;5085468;28;20219;-65
2023/08/15 08:13:45;;;;;;;3.23;1.80;;;13.70;81.00;;;;;;5081563;28;20174;-64
2023/08/15 08:16:12;;;;;;;3.43;2.30;;;13.70;80.90;;;;;;5081581;28;20210;-64
2023/08/15 08:18:39;;;;;;;4.00;2.33;;;13.70;81.10;;;;;;5074373;28;20558;-64
2023/08/15 08:21:09;;;;;;;5.20;2.30;;;13.70;81.20;;;;;;5079484;28;20178;-67
2023/08/15 08:23:37;;;;;;;3.10;2.40;;;13.70;81.20;;;;;;5075074;28;20180;-63
2023/08/15 08:26:04;;;;;;;4.00;2.70;;;13.70;81.20;;;;;;5085446;28;20182;-65
2023/08/15 08:28:32;;;;;;;3.30;2.60;;;13.70;81.20;;;;;;5077972;28;20192;-68
2023/08/15 08:31:02;;;;;;;3.30;3.00;;;13.70;81.30;;;;;;5082792;28;20202;-65
2023/08/15 08:33:33;;;;;;;4.43;2.90;;;13.60;81.30;;;;;;5070795;28;20267;-69
2023/08/15 08:36:01;;;;;;;5.07;3.83;;;13.60;81.20;;;;;;5066224;28;20194;-69
2023/08/15 08:38:28;;;;;;;4.90;4.27;;;13.50;81.60;;;;;;5076948;28;20683;-64
2023/08/15 08:40:56;;;;;;;5.57;4.50;;;13.50;81.90;;;;;;5078828;28;20187;-64
2023/08/15 08:43:25;;;;;;;4.83;4.43;;;13.50;82.20;;;;;;5079137;28;20215;-67
2023/08/15 08:45:54;;;;;;;6.77;5.30;;;13.50;82.20;;;;;;5073766;28;20226;-66
2023/08/15 08:48:23;;;;;;;6.00;5.37;;;13.50;82.60;;;;;;5073546;28;20179;-68
2023/08/15 08:50:51;;;;;;;5.93;5.33;;;13.50;82.60;;;;;;5079157;28;20218;-64
2023/08/15 08:53:19;;;;;;;6.30;5.70;;;13.40;82.50;;;;;;5081191;28;20266;-65
2023/08/15 08:55:50;;;;;;;6.90;5.93;;;13.50;82.80;;;;;;5045783;28;20191;-63
2023/08/15 08:58:18;;;;;;;7.07;6.07;;;13.40;82.80;;;;;;5072355;28;20214;-64
2023/08/15 09:00:46;;;;;;;7.57;6.03;;;13.40;82.70;;;;;;5080666;28;20700;-68
2023/08/15 09:03:14;;;;;;;6.50;5.90;;;13.40;82.80;;;;;;5067921;28;20187;-65
2023/08/15 09:05:42;;;;;;;6.70;6.17;;;13.30;82.70;;;;;;5071636;28;20171;-65
2023/08/15 09:08:09;;;;;;;6.90;6.37;;;13.30;82.70;;;;;;5075592;28;20250;-65
2023/08/15 09:10:37;;;;;;;9.10;6.40;;;13.30;82.80;;;;;;5074035;28;20221;-64
2023/08/15 09:13:05;;;;;;;7.00;6.03;;;13.30;83.00;;;;;;5082760;28;20636;-64
2023/08/15 09:15:32;;;;;;;9.73;6.10;;;13.30;82.80;;;;;;5070161;28;20178;-64
2023/08/15 09:18:01;;;;;;;6.87;6.10;;;13.30;82.90;;;;;;5074893;28;20580;-64
2023/08/15 09:20:28;;;;;;;7.77;6.43;;;13.40;82.90;;;;;;5075710;28;20186;-63
2023/08/15 09:23:00;;;;;;;7.17;6.47;;;13.40;82.80;;;;;;5075850;28;20187;-64
2023/08/15 09:25:29;;;;;;;7.57;6.80;;;13.30;82.50;;;;;;5074549;28;20218;-64
2023/08/15 09:27:57;;;;;;;8.83;6.27;;;13.30;82.60;;;;;;5072307;28;20214;-65
2023/08/15 09:30:24;;;;;;;8.90;6.83;;;13.30;82.50;;;;;;5076562;28;20234;-63
2023/08/15 09:32:51;;;;;;;7.87;6.80;;;13.30;82.70;;;;;;5074236;28;20183;-64
2023/08/15 09:35:19;;;;;;;10.43;7.03;;;13.30;82.80;;;;;;5074715;28;20589;-63
2023/08/15 09:37:49;;;;;;;7.33;6.70;;;13.30;82.90;;;;;;5080297;28;20602;-64
2023/08/15 09:40:18;;;;;;;7.27;6.30;;;13.30;82.70;;;;;;5077238;28;20179;-64
2023/08/15 09:42:46;;;;;;;7.33;6.63;;;13.40;82.90;;;;;;5078701;28;20202;-64
2023/08/15 09:45:16;;;;;;;7.67;6.40;;;13.40;82.70;;;;;;5070645;28;20240;-64
2023/08/15 09:47:44;;;;;;;9.03;6.73;;;13.30;82.80;;;;;;5077271;28;20187;-64
2023/08/15 09:50:13;;;;;;;8.87;6.27;;;13.30;82.80;;;;;;5075150;28;20666;-63
2023/08/15 09:52:43;;;;;;;10.27;6.30;;;13.30;83.00;;;;;;5076072;28;20187;-67
2023/08/15 09:55:12;;;;;;;7.63;6.97;;;13.30;82.80;;;;;;5074790;28;20698;-70
2023/08/15 09:57:41;;;;;;;7.63;6.77;;;13.20;83.20;;;;;;5078260;28;20201;-69
2023/08/15 10:00:12;;;;;;;8.20;7.60;;;13.20;83.50;;;;;;5078491;28;20188;-65
2023/08/15 10:02:46;;;;;;;8.77;7.47;;;13.10;83.60;;;;;;5077000;28;21928;-66
2023/08/15 10:05:17;;;;;;;8.30;7.67;;;13.10;83.50;;;;;;5070902;28;20313;-72
2023/08/15 10:07:47;;;;;;;8.07;7.37;;;13.00;83.70;;;;;;5074770;28;20219;-67
2023/08/15 10:10:16;;;;;;;8.07;7.27;;;12.90;84.00;;;;;;5073220;28;20203;-65
2023/08/15 10:12:45;;;;;;;7.80;7.10;;;12.90;84.10;;;;;;5082409;28;20698;-64
2023/08/15 10:15:13;;;;;;;9.33;7.43;;;12.80;84.10;;;;;;5074088;28;20232;-64
2023/08/15 10:17:41;;;;;;;9.07;8.13;;;12.80;84.20;;;;;;5078037;28;20268;-63
2023/08/15 10:20:12;;;;;;;9.27;8.43;;;12.80;84.50;;;;;;5074227;28;20660;-66
2023/08/15 10:22:40;;;;;;;9.83;8.17;;;12.80;84.30;;;;;;5077102;28;20183;-64
2023/08/15 10:25:28;;;;;;;9.20;8.00;;;12.70;84.30;;;;;;5073635;28;20268;-66
2023/08/15 10:27:57;;;;;;;9.33;8.20;;;12.60;84.50;;;;;;5079320;28;20201;-64
2023/08/15 10:30:36;;;;;;;8.10;7.33;;;12.60;84.90;;;;;;5075511;28;20625;-64
2023/08/15 10:33:18;;;;;;;8.87;8.20;;;12.60;84.90;;;;;;5072764;28;20236;-66
2023/08/15 10:35:57;;;;;;;9.50;8.57;;;12.60;84.90;;;;;;5070091;28;20536;-65
2023/08/15 10:38:39;;;;;;;10.23;9.30;;;12.60;85.40;;;;;;5067947;28;20205;-67
2023/08/15 10:41:20;;;;;;;10.30;9.40;;;12.50;85.30;;;;;;5079113;28;20240;-72
2023/08/15 10:43:59;;;;;;;11.97;11.07;;;12.40;85.40;;;;;;5071577;28;20187;-67
2023/08/15 10:46:27;;;;;;;12.20;11.20;;;12.40;86.00;;;;;;5054319;28;20644;-65
2023/08/15 10:48:59;;;;;;;12.87;11.67;;;12.40;85.90;;;;;;5073971;28;20182;-73
2023/08/15 10:51:28;;;;;;;13.10;11.83;;;12.40;86.00;;;;;;5057574;28;20214;-68
2023/08/15 10:54:00;;;;;;;12.77;11.40;;;12.30;86.10;;;;;;5070166;28;20267;-65
2023/08/15 10:56:37;;;;;;;13.03;12.00;;;12.30;86.30;;;;;;5070326;28;20214;-65
2023/08/15 10:59:07;;;;;;;14.80;13.80;;;12.30;86.90;;;;;;5040168;28;20174;-64
2023/08/15 11:01:36;;;;;;;16.20;14.90;;;12.30;86.90;;;;;;5075867;28;20193;-64
2023/08/15 11:04:08;;;;;;;16.53;15.43;;;12.30;87.30;;;;;;5074374;28;20208;-65
2023/08/15 11:06:53;;;;;;;17.60;16.50;;;12.30;87.30;;;;;;5079685;28;20521;-71
2023/08/15 11:09:31;;;;;;;18.80;17.13;;;12.30;87.50;;;;;;5077376;28;20222;-64
2023/08/15 11:12:09;;;;;;;20.53;19.23;;;12.30;87.80;;;;;;5057178;28;20536;-69
2023/08/15 11:14:40;;;;;;;22.20;20.60;;;12.30;87.90;;;;;;5072627;28;20583;-67
2023/08/15 11:17:11;;;;;;;25.40;23.67;;;12.30;88.00;;;;;;5072965;28;20190;-64
2023/08/15 11:19:38;;;;;;;28.07;26.40;;;12.40;88.10;;;;;;5054501;28;20520;-64
2023/08/15 11:22:16;;;;;;;29.00;27.00;;;12.30;88.10;;;;;;5071774;28;20178;-68
2023/08/15 11:24:44;;;;;;;27.80;26.10;;;12.30;88.00;;;;;;5074932;28;20584;-64
2023/08/15 11:27:11;;;;;;;29.80;27.93;;;12.30;88.20;;;;;;5082287;28;20179;-63
2023/08/15 11:29:38;;;;;;;29.17;27.50;;;12.30;88.10;;;;;;5084608;28;20644;-66
2023/08/15 11:32:07;;;;;;;33.20;31.20;;;12.40;88.00;;;;;;5060166;28;20198;-64
2023/08/15 11:34:36;;;;;;;30.73;29.00;;;12.30;88.10;;;;;;5079592;28;20186;-64
2023/08/15 11:37:05;;;;;;;31.20;29.50;;;12.30;87.90;;;;;;5070373;28;20187;-64
2023/08/15 11:39:33;;;;;;;29.63;28.13;;;12.30;87.90;;;;;;5079159;28;20174;-64
2023/08/15 11:42:00;;;;;;;29.53;27.93;;;12.30;87.70;;;;;;5072436;28;20294;-64
2023/08/15 11:44:28;;;;;;;29.40;27.67;;;12.30;87.70;;;;;;5084021;28;20194;-65
2023/08/15 11:46:55;;;;;;;29.23;27.50;;;12.20;87.50;;;;;;5076434;28;20253;-68
2023/08/15 11:49:23;;;;;;;28.13;26.17;;;12.20;87.50;;;;;;5054699;28;20535;-65
2023/08/15 11:51:51;;;;;;;28.63;26.70;;;12.30;87.40;;;;;;5073723;28;20213;-71
2023/08/15 11:54:19;;;;;;;29.40;27.30;;;12.20;87.40;;;;;;5066645;28;20236;-65
2023/08/15 11:56:53;;;;;;;34.27;32.00;;;12.20;87.50;;;;;;5072285;28;20228;-66
2023/08/15 11:59:20;;;;;;;34.63;32.63;;;12.20;87.40;;;;;;5083277;28;20179;-67
2023/08/15 12:01:49;;;;;;;35.10;33.07;;;12.20;87.40;;;;;;5055955;28;20179;-71
2023/08/15 12:04:21;;;;;;;36.13;34.10;;;12.20;87.60;;;;;;5072160;28;20178;-69
2023/08/15 12:06:52;;;;;;;36.57;34.20;;;12.20;87.50;;;;;;5055413;28;20195;-68
2023/08/15 12:09:21;;;;;;;38.00;35.93;;;12.20;87.60;;;;;;5079697;28;20211;-69
2023/08/15 12:11:55;;;;;;;40.13;37.80;;;12.30;87.60;;;;;;5055159;28;20690;-64
2023/08/15 12:14:23;;;;;;;40.80;38.20;;;12.20;87.60;;;;;;5072306;28;20979;-65
2023/08/15 12:16:53;;;;;;;40.07;37.83;;;12.30;87.70;;;;;;5056707;28;20576;-68
2023/08/15 12:19:25;;;;;;;44.07;41.47;;;12.30;87.50;;;;;;5055858;28;20210;-64
2023/08/15 12:21:53;;;;;;;40.77;38.57;;;12.30;87.70;;;;;;5075359;28;20657;-64
2023/08/15 12:24:21;;;;;;;43.87;41.20;;;12.30;87.70;;;;;;5081027;28;20171;-68
2023/08/15 12:26:48;;;;;;;46.83;44.07;;;12.30;87.60;;;;;;5078876;28;20179;-63
2023/08/15 12:29:16;;;;;;;45.90;43.47;;;12.20;87.60;;;;;;5083408;28;20526;-69
2023/08/15 12:31:43;;;;;;;45.33;42.83;;;12.20;87.80;;;;;;5078646;28;20237;-67
2023/08/15 12:34:10;;;;;;;47.77;44.60;;;12.10;88.10;;;;;;5074630;28;20193;-71
2023/08/15 12:36:38;;;;;;;47.97;44.87;;;12.00;88.20;;;;;;5079741;28;20183;-70
2023/08/15 12:39:06;;;;;;;50.77;48.07;;;12.00;88.40;;;;;;5076814;28;20175;-64
2023/08/15 12:41:34;;;;;;;54.50;51.60;;;12.00;88.50;;;;;;5075269;28;20191;-65
2023/08/15 12:44:02;;;;;;;58.33;55.13;;;11.90;88.70;;;;;;5077716;28;20179;-65
2023/08/15 12:46:29;;;;;;;60.30;57.00;;;11.80;88.70;;;;;;5077497;28;20199;-67
2023/08/15 12:48:58;;;;;;;61.03;57.63;;;11.80;88.70;;;;;;5077412;28;20183;-65
2023/08/15 12:51:26;;;;;;;61.93;58.63;;;11.70;88.90;;;;;;5078182;28;20218;-71
2023/08/15 12:53:54;;;;;;;66.27;62.60;;;11.70;89.10;;;;;;5072208;28;20773;-66
2023/08/15 12:56:21;;;;;;;68.57;64.80;;;11.60;89.20;;;;;;5079540;28;20197;-64